createdAt,value
2022-08-26T00:02:12.606Z,6.82
2022-08-26T00:04:40.965Z,6.75
2022-08-26T00:07:10.476Z,6.78
2022-08-26T00:09:40.145Z,6.35
2022-08-26T00:12:12.381Z,6.68
2022-08-26T00:14:41.833Z,6.73
2022-08-26T00:17:10.612Z,7.13
2022-08-26T00:19:39.236Z,6.40
2022-08-26T00:22:08.436Z,6.75
2022-08-26T00:24:37.981Z,6.63
2022-08-26T00:27:06.547Z,6.72
2022-08-26T00:29:35.558Z,6.63
2022-08-26T00:32:06.449Z,6.43
2022-08-26T00:34:35.240Z,7.00
2022-08-26T00:37:03.558Z,6.35
2022-08-26T00:39:31.683Z,6.70
2022-08-26T00:42:01.569Z,6.97
2022-08-26T00:44:30.635Z,7.07
2022-08-26T00:47:03.950Z,6.88
2022-08-26T00:49:38.542Z,6.90
2022-08-26T00:52:09.856Z,6.88
2022-08-26T00:54:46.751Z,6.40
2022-08-26T00:57:19.724Z,7.97
2022-08-26T00:59:51.844Z,6.95
2022-08-26T01:02:21.465Z,6.27
2022-08-26T01:04:55.564Z,6.70
2022-08-26T01:07:27.406Z,6.78
2022-08-26T01:09:56.204Z,6.78
2022-08-26T01:12:29.052Z,6.60
2022-08-26T01:14:57.208Z,6.80
2022-08-26T01:17:26.662Z,6.63
2022-08-26T01:20:03.255Z,6.25
2022-08-26T01:22:40.861Z,6.80
2022-08-26T01:25:09.731Z,6.93
2022-08-26T01:27:37.907Z,7.32
2022-08-26T01:30:07.445Z,6.97
2022-08-26T01:32:36.336Z,6.78
2022-08-26T01:35:08.628Z,6.63
2022-08-26T01:37:40.343Z,6.63
2022-08-26T01:40:15.210Z,6.90
2022-08-26T01:42:46.959Z,7.03
2022-08-26T01:45:20.417Z,7.18
2022-08-26T01:47:57.155Z,7.10
2022-08-26T01:50:30.617Z,7.05
2022-08-26T01:53:02.481Z,6.88
2022-08-26T01:55:34.119Z,7.07
2022-08-26T01:58:06.400Z,7.15
2022-08-26T02:00:36.358Z,7.70
2022-08-26T02:03:18.319Z,7.10
2022-08-26T02:05:48.766Z,7.32
2022-08-26T02:10:55.602Z,7.15
2022-08-26T02:13:27.531Z,7.38
2022-08-26T02:15:56.426Z,7.43
2022-08-26T02:18:25.466Z,7.20
2022-08-26T02:20:55.345Z,7.53
2022-08-26T02:23:24.458Z,7.47
2022-08-26T02:26:00.415Z,7.07
2022-08-26T02:28:32.372Z,7.70
2022-08-26T02:31:02.552Z,7.57
2022-08-26T02:33:31.279Z,7.88
2022-08-26T02:35:59.440Z,8.38
2022-08-26T02:38:27.785Z,7.30
2022-08-26T02:40:57.330Z,7.43
2022-08-26T02:43:31.629Z,8.07
2022-08-26T02:46:02.351Z,7.82
2022-08-26T02:48:31.479Z,7.43
2022-08-26T02:51:01.792Z,7.57
2022-08-26T02:53:31.787Z,7.88
2022-08-26T02:56:01.952Z,8.55
2022-08-26T02:58:31.243Z,7.95
2022-08-26T03:00:59.616Z,8.52
2022-08-26T03:03:30.181Z,7.97
2022-08-26T03:05:58.963Z,7.78
2022-08-26T03:08:27.030Z,7.78
2022-08-26T03:10:55.570Z,7.72
2022-08-26T03:13:25.491Z,7.93
2022-08-26T03:15:53.559Z,8.57
2022-08-26T03:18:21.664Z,8.27
2022-08-26T03:20:49.818Z,7.50
2022-08-26T03:23:18.501Z,9.02
2022-08-26T03:25:50.511Z,8.65
2022-08-26T03:28:19.449Z,7.88
2022-08-26T03:30:49.234Z,8.05
2022-08-26T03:33:17.648Z,8.13
2022-08-26T03:35:50.632Z,7.45
2022-08-26T03:40:47.700Z,7.55
2022-08-26T03:43:17.123Z,8.18
2022-08-26T03:45:45.949Z,7.97
2022-08-26T03:48:15.500Z,8.00
2022-08-26T03:50:43.813Z,8.02
2022-08-26T03:53:13.068Z,7.90
2022-08-26T03:55:43.409Z,8.20
2022-08-26T03:58:12.380Z,8.15
2022-08-26T04:00:40.408Z,8.20
2022-08-26T04:03:09.993Z,8.40
2022-08-26T04:05:40.067Z,8.55
2022-08-26T04:08:08.245Z,7.57
2022-08-26T04:10:39.069Z,8.05
2022-08-26T04:13:07.527Z,8.02
2022-08-26T04:15:35.872Z,7.35
2022-08-26T04:18:04.890Z,8.50
2022-08-26T04:20:33.011Z,8.18
2022-08-26T04:23:02.515Z,7.88
2022-08-26T04:25:30.565Z,7.88
2022-08-26T04:27:58.638Z,7.97
2022-08-26T04:30:26.947Z,8.30
2022-08-26T04:32:55.049Z,7.80
2022-08-26T04:35:26.003Z,7.97
2022-08-26T04:37:55.715Z,8.15
2022-08-26T04:40:27.587Z,7.82
2022-08-26T04:42:56.448Z,8.32
2022-08-26T04:45:25.311Z,7.60
2022-08-26T04:47:56.318Z,8.73
2022-08-26T04:50:26.733Z,7.88
2022-08-26T04:52:55.630Z,8.40
2022-08-26T04:55:38.414Z,7.60
2022-08-26T04:58:10.154Z,7.80
2022-08-26T05:00:39.721Z,7.93
2022-08-26T05:03:10.180Z,8.02
2022-08-26T05:05:41.224Z,7.65
2022-08-26T05:08:11.308Z,7.70
2022-08-26T05:10:46.263Z,7.78
2022-08-26T05:13:15.721Z,7.60
2022-08-26T05:15:45.050Z,7.38
2022-08-26T05:18:14.895Z,7.35
2022-08-26T05:20:45.310Z,8.25
2022-08-26T05:23:16.289Z,6.82
2022-08-26T05:25:48.341Z,7.25
2022-08-26T05:28:18.707Z,6.85
2022-08-26T05:30:47.148Z,7.07
2022-08-26T05:33:16.555Z,7.40
2022-08-26T05:35:46.400Z,6.60
2022-08-26T05:38:17.498Z,7.10
2022-08-26T05:40:52.905Z,6.78
2022-08-26T05:43:21.704Z,7.18
2022-08-26T05:45:51.466Z,6.85
2022-08-26T05:48:22.654Z,6.43
2022-08-26T05:50:53.881Z,6.88
2022-08-26T05:53:24.025Z,6.38
2022-08-26T05:55:56.761Z,6.40
2022-08-26T05:58:27.162Z,5.85
2022-08-26T06:01:01.220Z,5.65
2022-08-26T06:03:31.033Z,6.32
2022-08-26T06:06:00.451Z,6.50
2022-08-26T06:08:28.463Z,5.50
2022-08-26T06:11:02.413Z,6.18
2022-08-26T06:13:32.061Z,5.90
2022-08-26T06:16:03.375Z,6.47
2022-08-26T06:18:36.449Z,5.75
2022-08-26T06:21:14.340Z,5.78
2022-08-26T06:24:00.133Z,5.82
2022-08-26T06:26:30.667Z,5.88
2022-08-26T06:28:59.605Z,5.82
2022-08-26T06:31:30.853Z,4.72
2022-08-26T06:34:01.551Z,5.32
2022-08-26T06:36:32.212Z,4.95
2022-08-26T06:39:03.700Z,5.78
2022-08-26T06:41:33.647Z,5.32
2022-08-26T06:44:02.533Z,4.90
2022-08-26T06:46:32.000Z,4.88
2022-08-26T06:49:00.470Z,5.05
2022-08-26T06:51:32.181Z,4.90
2022-08-26T06:54:03.090Z,5.00
2022-08-26T06:56:36.665Z,5.63
2022-08-26T06:59:07.162Z,4.88
2022-08-26T07:01:38.332Z,4.47
2022-08-26T07:04:12.154Z,4.55
2022-08-26T07:06:43.200Z,4.95
2022-08-26T07:09:13.924Z,4.88
2022-08-26T07:11:44.550Z,5.00
2022-08-26T07:14:13.237Z,5.18
2022-08-26T07:16:41.835Z,4.85
2022-08-26T07:19:10.956Z,5.10
2022-08-26T07:21:40.342Z,4.80
2022-08-26T07:24:11.046Z,4.65
2022-08-26T07:26:42.998Z,4.78
2022-08-26T07:29:12.758Z,4.70
2022-08-26T07:31:42.434Z,4.70
2022-08-26T07:34:11.755Z,4.63
2022-08-26T07:36:39.868Z,4.30
2022-08-26T07:39:08.170Z,4.65
2022-08-26T07:41:36.917Z,4.07
2022-08-26T07:44:06.497Z,3.55
2022-08-26T07:46:38.036Z,4.05
2022-08-26T07:49:06.840Z,4.28
2022-08-26T07:51:35.521Z,3.75
2022-08-26T07:54:05.543Z,4.15
2022-08-26T07:56:35.300Z,3.88
2022-08-26T07:59:13.300Z,3.70
2022-08-26T08:01:44.797Z,3.67
2022-08-26T08:04:14.629Z,4.05
2022-08-26T08:06:44.009Z,3.92
2022-08-26T08:09:12.730Z,4.38
2022-08-26T08:11:41.390Z,3.95
2022-08-26T08:14:11.845Z,4.53
2022-08-26T08:16:42.416Z,3.90
2022-08-26T08:19:16.537Z,3.95
2022-08-26T08:21:45.104Z,4.07
2022-08-26T08:24:13.256Z,3.80
2022-08-26T08:26:41.726Z,4.63
2022-08-26T08:29:09.936Z,4.05
2022-08-26T08:31:57.073Z,3.90
2022-08-26T08:34:29.389Z,4.10
2022-08-26T08:36:58.285Z,4.03
2022-08-26T08:39:26.752Z,4.10
2022-08-26T08:42:16.074Z,4.35
2022-08-26T08:44:52.222Z,4.32
2022-08-26T08:47:30.108Z,4.38
2022-08-26T08:50:07.497Z,4.00
2022-08-26T08:52:37.247Z,3.83
2022-08-26T08:55:11.106Z,4.10
2022-08-26T08:57:54.728Z,4.25
2022-08-26T09:00:39.850Z,4.10
2022-08-26T09:03:18.221Z,4.40
2022-08-26T09:05:51.523Z,4.30
2022-08-26T09:08:27.489Z,4.30
2022-08-26T09:10:59.530Z,4.30
2022-08-26T09:13:29.348Z,3.88
2022-08-26T09:16:07.360Z,4.03
2022-08-26T09:19:14.472Z,3.90
2022-08-26T09:21:44.507Z,4.07
2022-08-26T09:24:13.794Z,3.90
2022-08-26T09:26:48.021Z,4.43
2022-08-26T09:29:24.715Z,4.10
2022-08-26T09:31:53.240Z,4.18
2022-08-26T09:34:24.335Z,4.18
2022-08-26T09:36:56.164Z,4.15
2022-08-26T09:39:37.834Z,4.00
2022-08-26T09:42:12.854Z,3.75
2022-08-26T09:44:57.944Z,4.30
2022-08-26T09:47:30.214Z,3.60
2022-08-26T09:50:09.705Z,4.00
2022-08-26T09:52:40.635Z,4.25
2022-08-26T09:55:14.979Z,3.80
2022-08-26T09:57:50.325Z,4.90
2022-08-26T10:00:31.951Z,3.75
2022-08-26T10:03:03.713Z,3.97
2022-08-26T10:05:39.931Z,4.10
2022-08-26T10:08:23.777Z,3.88
2022-08-26T10:10:56.338Z,4.38
2022-08-26T10:18:33.879Z,4.20
2022-08-26T10:21:08.462Z,4.93
2022-08-26T10:23:42.829Z,3.95
2022-08-26T10:26:17.502Z,4.10
2022-08-26T10:28:51.693Z,4.20
2022-08-26T10:31:30.260Z,4.22
2022-08-26T10:34:06.620Z,3.97
2022-08-26T10:37:14.304Z,4.60
2022-08-26T10:39:48.138Z,4.45
2022-08-26T10:42:23.560Z,3.85
2022-08-26T10:44:58.399Z,4.00
2022-08-26T10:47:36.054Z,4.00
2022-08-26T10:50:05.968Z,4.10
2022-08-26T10:52:48.956Z,4.43
2022-08-26T10:55:25.686Z,3.97
2022-08-26T10:58:00.467Z,3.85
2022-08-26T11:00:57.885Z,4.53
2022-08-26T11:03:34.462Z,3.88
2022-08-26T11:06:23.745Z,3.70
2022-08-26T11:08:53.583Z,4.13
2022-08-26T11:11:57.240Z,4.85
2022-08-26T11:14:41.999Z,4.07
2022-08-26T11:17:56.436Z,4.00
2022-08-26T11:20:36.326Z,3.95
2022-08-26T11:23:41.577Z,4.03
2022-08-26T11:26:37.834Z,4.18
2022-08-26T11:29:13.428Z,4.03
2022-08-26T11:31:57.712Z,4.38
2022-08-26T11:34:58.375Z,4.43
2022-08-26T11:37:34.137Z,4.10
2022-08-26T11:40:04.556Z,3.72
2022-08-26T11:42:37.678Z,3.67
2022-08-26T11:45:23.989Z,4.25
2022-08-26T11:47:54.681Z,3.88
2022-08-26T11:50:26.145Z,3.90
2022-08-26T11:52:57.123Z,3.92
2022-08-26T11:55:25.507Z,3.95
2022-08-26T11:57:56.924Z,4.50
2022-08-26T12:00:27.530Z,4.00
2022-08-26T12:03:08.476Z,3.92
2022-08-26T12:05:44.326Z,3.83
2022-08-26T12:08:16.560Z,3.70
2022-08-26T12:10:45.499Z,3.70
2022-08-26T12:13:23.921Z,4.68
2022-08-26T12:15:56.394Z,3.80
2022-08-26T12:18:29.332Z,3.83
2022-08-26T12:21:01.122Z,4.00
2022-08-26T12:23:40.548Z,3.70
2022-08-26T12:26:11.464Z,3.78
2022-08-26T12:28:47.394Z,3.65
2022-08-26T12:31:23.535Z,3.67
2022-08-26T12:33:54.125Z,4.10
2022-08-26T12:36:27.482Z,3.75
2022-08-26T12:38:58.446Z,4.07
2022-08-26T12:41:57.809Z,3.67
2022-08-26T12:44:54.337Z,3.58
2022-08-26T12:47:32.727Z,3.80
2022-08-26T12:50:19.894Z,4.10
2022-08-26T12:52:58.004Z,4.50
2022-08-26T12:55:36.443Z,4.35
2022-08-26T12:58:24.953Z,4.40
2022-08-26T13:00:55.006Z,4.20
2022-08-26T13:03:43.584Z,4.22
2022-08-26T13:06:16.933Z,3.70
2022-08-26T13:08:45.763Z,3.70
2022-08-26T13:11:20.504Z,4.05
2022-08-26T13:13:51.995Z,3.33
2022-08-26T13:16:23.254Z,3.40
2022-08-26T13:18:53.289Z,3.70
2022-08-26T13:21:27.752Z,3.58
2022-08-26T13:24:03.967Z,3.88
2022-08-26T13:26:32.121Z,3.92
2022-08-26T13:29:01.847Z,4.05
2022-08-26T13:31:32.657Z,4.10
2022-08-26T13:34:02.289Z,4.10
2022-08-26T13:36:31.805Z,3.60
2022-08-26T13:39:00.493Z,3.78
2022-08-26T13:41:29.296Z,3.70
2022-08-26T13:43:59.472Z,4.03
2022-08-26T13:46:29.118Z,3.97
2022-08-26T13:48:57.701Z,3.63
2022-08-26T13:51:27.609Z,3.63
2022-08-26T13:53:58.283Z,3.67
2022-08-26T13:56:29.383Z,3.70
2022-08-26T13:58:58.039Z,4.22
2022-08-26T14:01:26.458Z,4.40
2022-08-26T14:03:54.625Z,4.18
2022-08-26T14:06:26.115Z,4.05
2022-08-26T14:08:54.645Z,4.10
2022-08-26T14:11:24.968Z,3.60
2022-08-26T14:13:53.118Z,4.05
2022-08-26T14:16:25.394Z,4.03
2022-08-26T14:18:54.601Z,3.70
2022-08-26T14:21:23.209Z,3.25
2022-08-26T14:23:51.487Z,4.00
2022-08-26T14:26:28.684Z,3.97
2022-08-26T14:29:03.813Z,4.30
2022-08-26T14:31:33.448Z,4.13
2022-08-26T14:34:04.145Z,3.70
2022-08-26T14:36:32.992Z,3.58
2022-08-26T14:39:03.757Z,3.85
2022-08-26T14:41:33.253Z,3.92
2022-08-26T14:44:05.479Z,3.75
2022-08-26T14:46:41.154Z,3.85
2022-08-26T14:49:10.728Z,3.90
2022-08-26T14:51:39.197Z,3.63
2022-08-26T14:54:13.589Z,3.70
2022-08-26T14:56:45.863Z,3.60
2022-08-26T14:59:18.561Z,3.80
2022-08-26T15:01:46.827Z,3.85
2022-08-26T15:04:15.827Z,4.10
2022-08-26T15:06:44.180Z,3.92
2022-08-26T15:09:12.331Z,3.75
2022-08-26T15:11:40.841Z,3.67
2022-08-26T15:14:19.066Z,3.97
2022-08-26T15:16:50.911Z,3.83
2022-08-26T15:19:19.946Z,4.00
2022-08-26T15:21:48.539Z,3.65
2022-08-26T15:24:23.128Z,3.70
2022-08-26T15:26:51.888Z,4.38
2022-08-26T15:29:20.125Z,3.80
2022-08-26T15:31:49.648Z,4.15
2022-08-26T15:34:18.261Z,3.92
2022-08-26T15:36:48.055Z,3.60
2022-08-26T15:39:17.681Z,3.50
2022-08-26T15:41:46.330Z,3.70
2022-08-26T15:44:17.727Z,3.70
2022-08-26T15:46:48.210Z,3.78
2022-08-26T15:49:18.696Z,3.65
2022-08-26T15:51:50.185Z,3.70
2022-08-26T15:56:52.087Z,3.85
2022-08-26T15:59:22.068Z,3.78
2022-08-26T16:01:51.204Z,3.97
2022-08-26T16:04:20.951Z,4.03
2022-08-26T16:06:50.387Z,3.70
2022-08-26T16:09:19.029Z,4.20
2022-08-26T16:11:47.206Z,3.85
2022-08-26T16:14:15.399Z,4.93
2022-08-26T16:16:43.521Z,4.25
2022-08-26T16:19:12.424Z,4.00
2022-08-26T16:21:42.493Z,3.75
2022-08-26T16:24:10.930Z,4.03
2022-08-26T16:26:40.921Z,4.50
2022-08-26T16:29:11.494Z,4.28
2022-08-26T16:31:39.726Z,4.05
2022-08-26T16:34:08.853Z,4.53
2022-08-26T16:36:38.102Z,3.83
2022-08-26T16:39:08.885Z,4.15
2022-08-26T16:41:37.141Z,4.00
2022-08-26T16:44:06.216Z,4.25
2022-08-26T16:46:36.262Z,3.80
2022-08-26T16:49:04.702Z,3.88
2022-08-26T16:51:38.086Z,4.18
2022-08-26T16:54:08.953Z,3.90
2022-08-26T16:56:38.179Z,3.72
2022-08-26T16:59:09.446Z,3.40
2022-08-26T17:01:37.566Z,3.92
2022-08-26T17:04:06.040Z,4.05
2022-08-26T17:06:34.198Z,3.55
2022-08-26T17:09:02.362Z,3.92
2022-08-26T17:11:32.060Z,3.60
2022-08-26T17:14:00.361Z,4.47
2022-08-26T17:16:28.719Z,4.40
2022-08-26T17:18:57.818Z,4.00
2022-08-26T17:21:27.034Z,4.22
2022-08-26T17:23:55.927Z,4.03
2022-08-26T17:26:24.060Z,4.32
2022-08-26T17:28:53.692Z,3.50
2022-08-26T17:31:23.358Z,3.70
2022-08-26T17:33:53.354Z,4.07
2022-08-26T17:36:27.893Z,3.75
2022-08-26T17:38:57.900Z,4.53
2022-08-26T17:41:27.460Z,4.10
2022-08-26T17:43:57.094Z,4.18
2022-08-26T17:46:25.353Z,4.15
2022-08-26T17:48:53.720Z,4.43
2022-08-26T17:51:22.953Z,4.18
2022-08-26T17:53:51.624Z,4.75
2022-08-26T17:56:23.916Z,4.13
2022-08-26T17:58:52.882Z,4.07
2022-08-26T18:01:23.599Z,3.97
2022-08-26T18:03:52.250Z,4.22
2022-08-26T18:06:23.522Z,4.15
2022-08-26T18:08:53.352Z,4.10
2022-08-26T18:11:23.004Z,4.15
2022-08-26T18:13:51.575Z,4.40
2022-08-26T18:16:20.564Z,4.70
2022-08-26T18:18:53.285Z,4.32
2022-08-26T18:21:23.489Z,4.43
2022-08-26T18:23:52.882Z,4.20
2022-08-26T18:26:24.033Z,4.70
2022-08-26T18:28:52.847Z,4.18
2022-08-26T18:31:21.268Z,4.30
2022-08-26T18:33:51.276Z,5.20
2022-08-26T18:36:22.720Z,4.10
2022-08-26T18:38:52.080Z,4.93
2022-08-26T18:41:21.892Z,4.40
2022-08-26T18:43:50.779Z,4.60
2022-08-26T18:46:20.349Z,5.00
2022-08-26T18:48:51.164Z,4.93
2022-08-26T18:51:21.893Z,4.30
2022-08-26T18:53:50.110Z,5.18
2022-08-26T18:56:18.782Z,4.90
2022-08-26T18:58:47.633Z,5.28
2022-08-26T19:01:16.920Z,4.78
2022-08-26T19:03:45.228Z,5.35
2022-08-26T19:06:17.406Z,4.90
2022-08-26T19:08:46.606Z,4.97
2022-08-26T19:11:31.672Z,4.38
2022-08-26T19:14:01.163Z,4.45
2022-08-26T19:16:30.744Z,4.50
2022-08-26T19:19:00.665Z,5.15
2022-08-26T19:21:30.737Z,4.93
2022-08-26T19:24:01.186Z,4.75
2022-08-26T19:26:30.191Z,5.00
2022-08-26T19:28:59.159Z,5.38
2022-08-26T19:31:28.230Z,5.30
2022-08-26T19:33:57.998Z,4.75
2022-08-26T19:36:28.209Z,5.45
2022-08-26T19:38:58.152Z,5.43
2022-08-26T19:41:36.591Z,5.07
2022-08-26T19:44:08.049Z,5.88
2022-08-26T19:49:10.046Z,5.18
2022-08-26T19:51:38.320Z,5.38
2022-08-26T19:54:07.930Z,5.20
2022-08-26T19:56:36.552Z,5.65
2022-08-26T19:59:04.841Z,5.00
2022-08-26T20:01:32.994Z,4.90
2022-08-26T20:04:01.208Z,5.15
2022-08-26T20:06:29.375Z,5.10
2022-08-26T20:08:57.628Z,5.28
2022-08-26T20:11:27.164Z,5.03
2022-08-26T20:13:55.342Z,5.35
2022-08-26T20:16:23.723Z,5.13
2022-08-26T20:19:09.163Z,4.97
2022-08-26T20:21:39.782Z,5.03
2022-08-26T20:24:11.345Z,5.10
2022-08-26T20:26:42.954Z,5.13
2022-08-26T20:29:13.101Z,5.53
2022-08-26T20:31:42.330Z,5.50
2022-08-26T20:34:10.514Z,5.40
2022-08-26T20:36:40.424Z,5.35
2022-08-26T20:39:10.490Z,5.53
2022-08-26T20:41:40.276Z,5.43
2022-08-26T20:44:09.410Z,5.70
2022-08-26T20:46:38.494Z,5.53
2022-08-26T20:49:07.503Z,5.10
2022-08-26T20:51:37.367Z,4.75
2022-08-26T20:54:06.389Z,5.25
2022-08-26T20:56:34.925Z,5.70
2022-08-26T20:59:06.833Z,5.28
2022-08-26T21:01:36.728Z,5.43
2022-08-26T21:04:12.321Z,5.18
2022-08-26T21:06:40.589Z,5.38
2022-08-26T21:09:15.157Z,4.60
2022-08-26T21:11:45.828Z,5.50
2022-08-26T21:14:17.253Z,5.15
2022-08-26T21:16:46.608Z,5.00
2022-08-26T21:19:17.574Z,4.88
2022-08-26T21:21:46.153Z,4.80
2022-08-26T21:24:14.685Z,5.03
2022-08-26T21:26:42.880Z,5.50
2022-08-26T21:29:11.132Z,5.75
2022-08-26T21:31:45.789Z,5.10
2022-08-26T21:34:15.676Z,5.63
2022-08-26T21:36:43.849Z,4.78
2022-08-26T21:39:12.477Z,4.93
2022-08-26T21:41:41.309Z,5.30
2022-08-26T21:44:10.366Z,5.30
2022-08-26T21:46:38.423Z,5.35
2022-08-26T21:49:09.779Z,5.20
2022-08-26T21:51:40.618Z,5.80
2022-08-26T21:54:11.329Z,5.25
2022-08-26T21:56:41.447Z,5.28
2022-08-26T21:59:10.128Z,5.75
2022-08-26T22:01:38.575Z,5.55
2022-08-26T22:04:09.886Z,5.72
2022-08-26T22:06:43.331Z,5.60
2022-08-26T22:09:11.968Z,5.32
2022-08-26T22:11:40.319Z,5.60
2022-08-26T22:14:08.400Z,5.60
2022-08-26T22:16:36.536Z,5.75
2022-08-26T22:19:04.852Z,6.18
2022-08-26T22:21:35.750Z,5.90
2022-08-26T22:24:04.655Z,6.07
2022-08-26T22:26:34.586Z,6.07
2022-08-26T22:29:03.554Z,6.68
2022-08-26T22:31:37.598Z,5.95
2022-08-26T22:34:07.882Z,5.78
2022-08-26T22:36:43.291Z,5.50
2022-08-26T22:39:13.423Z,5.97
2022-08-26T22:41:42.072Z,5.93
2022-08-26T22:44:10.505Z,6.15
2022-08-26T22:46:38.955Z,6.43
2022-08-26T22:49:08.729Z,5.78
2022-08-26T22:51:38.400Z,6.30
2022-08-26T22:54:07.658Z,5.97
2022-08-26T22:56:36.846Z,5.75
2022-08-26T22:59:06.727Z,5.78
2022-08-26T23:01:37.213Z,6.22
2022-08-26T23:04:07.335Z,6.18
2022-08-26T23:06:38.438Z,5.72
2022-08-26T23:09:07.338Z,6.00
2022-08-26T23:11:35.530Z,6.43
2022-08-26T23:14:06.279Z,5.53
2022-08-26T23:16:39.155Z,6.10
2022-08-26T23:19:08.109Z,5.93
2022-08-26T23:21:36.753Z,5.40
2022-08-26T23:24:07.205Z,6.20
2022-08-26T23:26:36.620Z,6.22
2022-08-26T23:29:05.670Z,6.20
2022-08-26T23:31:34.219Z,6.00
2022-08-26T23:34:19.704Z,5.70
2022-08-26T23:36:48.843Z,6.40
2022-08-26T23:39:18.349Z,6.20
2022-08-26T23:41:47.084Z,6.47
2022-08-26T23:44:15.772Z,5.97
2022-08-26T23:46:43.958Z,5.88
2022-08-26T23:49:12.064Z,6.32
2022-08-26T23:51:57.332Z,6.03
2022-08-26T23:54:26.832Z,6.45
2022-08-26T23:56:54.973Z,6.15
2022-08-26T23:59:23.085Z,6.78
